sensor_id;sensor_type;location;lat;lon;timestamp;P1;durP1;ratioP1;P2;durP2;ratioP2
70675;SDS011;59069;52.242;20.900;2023-08-06T00:01:11;28.60;;;12.27;;
70675;SDS011;59069;52.242;20.900;2023-08-06T00:03:37;29.17;;;13.20;;
70675;SDS011;59069;52.242;20.900;2023-08-06T00:06:02;30.97;;;14.87;;
70675;SDS011;59069;52.242;20.900;2023-08-06T00:08:29;32.38;;;15.32;;
70675;SDS011;59069;52.242;20.900;2023-08-06T00:10:55;32.00;;;13.63;;
70675;SDS011;59069;52.242;20.900;2023-08-06T00:13:20;33.53;;;13.33;;
70675;SDS011;59069;52.242;20.900;2023-08-06T00:15:45;34.73;;;13.30;;
70675;SDS011;59069;52.242;20.900;2023-08-06T00:18:11;25.00;;;12.63;;
70675;SDS011;59069;52.242;20.900;2023-08-06T00:20:38;25.43;;;12.57;;
70675;SDS011;59069;52.242;20.900;2023-08-06T00:23:04;28.58;;;13.05;;
70675;SDS011;59069;52.242;20.900;2023-08-06T00:25:29;31.77;;;13.70;;
70675;SDS011;59069;52.242;20.900;2023-08-06T00:27:55;25.20;;;13.93;;
70675;SDS011;59069;52.242;20.900;2023-08-06T00:30:21;25.50;;;14.15;;
70675;SDS011;59069;52.242;20.900;2023-08-06T00:32:46;26.90;;;13.53;;
70675;SDS011;59069;52.242;20.900;2023-08-06T00:35:12;25.93;;;12.60;;
70675;SDS011;59069;52.242;20.900;2023-08-06T00:37:38;23.40;;;12.35;;
70675;SDS011;59069;52.242;20.900;2023-08-06T00:40:04;22.00;;;12.83;;
70675;SDS011;59069;52.242;20.900;2023-08-06T00:42:30;23.50;;;11.93;;
70675;SDS011;59069;52.242;20.900;2023-08-06T00:44:56;19.83;;;11.53;;
70675;SDS011;59069;52.242;20.900;2023-08-06T00:47:21;20.17;;;12.10;;
70675;SDS011;59069;52.242;20.900;2023-08-06T00:49:47;23.83;;;13.63;;
70675;SDS011;59069;52.242;20.900;2023-08-06T00:52:12;24.73;;;12.93;;
70675;SDS011;59069;52.242;20.900;2023-08-06T00:54:39;20.55;;;12.35;;
70675;SDS011;59069;52.242;20.900;2023-08-06T00:57:04;18.65;;;10.82;;
70675;SDS011;59069;52.242;20.900;2023-08-06T00:59:32;20.17;;;11.80;;
70675;SDS011;59069;52.242;20.900;2023-08-06T01:01:57;21.40;;;11.80;;
70675;SDS011;59069;52.242;20.900;2023-08-06T01:04:23;18.43;;;10.93;;
70675;SDS011;59069;52.242;20.900;2023-08-06T01:06:49;19.05;;;11.65;;
70675;SDS011;59069;52.242;20.900;2023-08-06T01:09:34;18.43;;;11.00;;
70675;SDS011;59069;52.242;20.900;2023-08-06T01:12:13;21.60;;;11.15;;
70675;SDS011;59069;52.242;20.900;2023-08-06T01:14:51;19.73;;;10.82;;
70675;SDS011;59069;52.242;20.900;2023-08-06T01:17:21;18.20;;;11.07;;
70675;SDS011;59069;52.242;20.900;2023-08-06T01:19:48;20.88;;;11.65;;
70675;SDS011;59069;52.242;20.900;2023-08-06T01:22:13;18.30;;;10.67;;
70675;SDS011;59069;52.242;20.900;2023-08-06T01:24:46;19.33;;;10.50;;
70675;SDS011;59069;52.242;20.900;2023-08-06T01:27:17;19.73;;;11.18;;
70675;SDS011;59069;52.242;20.900;2023-08-06T01:29:59;21.10;;;12.23;;
70675;SDS011;59069;52.242;20.900;2023-08-06T01:32:29;24.48;;;12.48;;
70675;SDS011;59069;52.242;20.900;2023-08-06T01:34:59;23.83;;;12.53;;
70675;SDS011;59069;52.242;20.900;2023-08-06T01:37:25;20.80;;;11.68;;
70675;SDS011;59069;52.242;20.900;2023-08-06T01:39:51;21.73;;;11.30;;
70675;SDS011;59069;52.242;20.900;2023-08-06T01:42:16;19.37;;;11.07;;
70675;SDS011;59069;52.242;20.900;2023-08-06T01:44:42;18.57;;;10.53;;
70675;SDS011;59069;52.242;20.900;2023-08-06T01:47:07;17.85;;;10.43;;
70675;SDS011;59069;52.242;20.900;2023-08-06T01:49:32;17.40;;;9.83;;
70675;SDS011;59069;52.242;20.900;2023-08-06T01:51:58;18.37;;;10.13;;
70675;SDS011;59069;52.242;20.900;2023-08-06T01:54:23;17.07;;;10.20;;
70675;SDS011;59069;52.242;20.900;2023-08-06T01:56:49;16.40;;;9.13;;
70675;SDS011;59069;52.242;20.900;2023-08-06T01:59:14;16.73;;;9.15;;
70675;SDS011;59069;52.242;20.900;2023-08-06T02:01:39;17.77;;;10.33;;
70675;SDS011;59069;52.242;20.900;2023-08-06T02:04:05;15.83;;;9.40;;
70675;SDS011;59069;52.242;20.900;2023-08-06T02:06:30;17.23;;;9.23;;
70675;SDS011;59069;52.242;20.900;2023-08-06T02:08:55;17.70;;;9.40;;
70675;SDS011;59069;52.242;20.900;2023-08-06T02:11:21;15.77;;;9.47;;
70675;SDS011;59069;52.242;20.900;2023-08-06T02:13:46;16.58;;;9.60;;
70675;SDS011;59069;52.242;20.900;2023-08-06T02:16:11;15.87;;;8.70;;
70675;SDS011;59069;52.242;20.900;2023-08-06T02:18:37;14.57;;;9.07;;
70675;SDS011;59069;52.242;20.900;2023-08-06T02:21:02;15.73;;;9.73;;
70675;SDS011;59069;52.242;20.900;2023-08-06T02:23:28;15.83;;;9.43;;
70675;SDS011;59069;52.242;20.900;2023-08-06T02:26:00;15.23;;;9.25;;
70675;SDS011;59069;52.242;20.900;2023-08-06T02:28:26;16.33;;;9.02;;
70675;SDS011;59069;52.242;20.900;2023-08-06T02:30:52;15.20;;;8.70;;
70675;SDS011;59069;52.242;20.900;2023-08-06T02:33:17;14.15;;;8.93;;
70675;SDS011;59069;52.242;20.900;2023-08-06T02:35:43;15.53;;;9.43;;
70675;SDS011;59069;52.242;20.900;2023-08-06T02:38:08;16.40;;;9.60;;
70675;SDS011;59069;52.242;20.900;2023-08-06T02:40:33;15.60;;;8.57;;
70675;SDS011;59069;52.242;20.900;2023-08-06T02:42:59;14.90;;;9.00;;
70675;SDS011;59069;52.242;20.900;2023-08-06T02:45:24;14.97;;;9.20;;
70675;SDS011;59069;52.242;20.900;2023-08-06T02:47:49;15.50;;;8.45;;
70675;SDS011;59069;52.242;20.900;2023-08-06T02:50:15;14.13;;;8.93;;
70675;SDS011;59069;52.242;20.900;2023-08-06T02:52:40;14.83;;;8.53;;
70675;SDS011;59069;52.242;20.900;2023-08-06T02:55:06;15.07;;;8.43;;
70675;SDS011;59069;52.242;20.900;2023-08-06T02:57:32;17.30;;;9.57;;
70675;SDS011;59069;52.242;20.900;2023-08-06T02:59:57;16.77;;;8.80;;
70675;SDS011;59069;52.242;20.900;2023-08-06T03:02:22;15.17;;;9.50;;
70675;SDS011;59069;52.242;20.900;2023-08-06T03:04:48;18.45;;;9.68;;
70675;SDS011;59069;52.242;20.900;2023-08-06T03:07:13;16.57;;;9.10;;
70675;SDS011;59069;52.242;20.900;2023-08-06T03:09:39;16.67;;;8.77;;
70675;SDS011;59069;52.242;20.900;2023-08-06T03:12:04;16.50;;;9.77;;
70675;SDS011;59069;52.242;20.900;2023-08-06T03:14:30;17.75;;;9.90;;
70675;SDS011;59069;52.242;20.900;2023-08-06T03:16:55;15.97;;;10.03;;
70675;SDS011;59069;52.242;20.900;2023-08-06T03:19:21;15.87;;;9.37;;
70675;SDS011;59069;52.242;20.900;2023-08-06T03:21:46;15.47;;;9.43;;
70675;SDS011;59069;52.242;20.900;2023-08-06T03:24:13;15.60;;;9.53;;
70675;SDS011;59069;52.242;20.900;2023-08-06T03:26:38;18.35;;;8.98;;
70675;SDS011;59069;52.242;20.900;2023-08-06T03:29:04;17.17;;;10.43;;
70675;SDS011;59069;52.242;20.900;2023-08-06T03:31:29;18.43;;;9.90;;
70675;SDS011;59069;52.242;20.900;2023-08-06T03:33:55;19.70;;;10.40;;
70675;SDS011;59069;52.242;20.900;2023-08-06T03:36:20;18.37;;;10.97;;
70675;SDS011;59069;52.242;20.900;2023-08-06T03:38:45;19.63;;;11.25;;
70675;SDS011;59069;52.242;20.900;2023-08-06T03:41:11;20.70;;;11.23;;
70675;SDS011;59069;52.242;20.900;2023-08-06T03:43:36;20.30;;;10.70;;
70675;SDS011;59069;52.242;20.900;2023-08-06T03:46:02;20.30;;;11.33;;
70675;SDS011;59069;52.242;20.900;2023-08-06T03:48:27;20.20;;;11.63;;
70675;SDS011;59069;52.242;20.900;2023-08-06T03:50:52;19.88;;;11.73;;
70675;SDS011;59069;52.242;20.900;2023-08-06T03:53:18;18.60;;;11.67;;
70675;SDS011;59069;52.242;20.900;2023-08-06T03:55:43;19.57;;;11.73;;
70675;SDS011;59069;52.242;20.900;2023-08-06T03:58:08;20.47;;;11.33;;
70675;SDS011;59069;52.242;20.900;2023-08-06T04:00:34;20.97;;;12.10;;
70675;SDS011;59069;52.242;20.900;2023-08-06T04:02:59;23.70;;;12.90;;
70675;SDS011;59069;52.242;20.900;2023-08-06T04:05:25;21.93;;;12.67;;
70675;SDS011;59069;52.242;20.900;2023-08-06T04:07:50;20.73;;;12.60;;
70675;SDS011;59069;52.242;20.900;2023-08-06T04:10:15;21.33;;;12.40;;
70675;SDS011;59069;52.242;20.900;2023-08-06T04:12:41;23.50;;;12.33;;
70675;SDS011;59069;52.242;20.900;2023-08-06T04:15:06;22.93;;;12.80;;
70675;SDS011;59069;52.242;20.900;2023-08-06T04:17:32;21.27;;;12.23;;
70675;SDS011;59069;52.242;20.900;2023-08-06T04:19:57;21.05;;;12.48;;
70675;SDS011;59069;52.242;20.900;2023-08-06T04:22:26;22.03;;;12.23;;
70675;SDS011;59069;52.242;20.900;2023-08-06T04:24:52;21.70;;;13.73;;
70675;SDS011;59069;52.242;20.900;2023-08-06T04:27:18;20.23;;;12.80;;
70675;SDS011;59069;52.242;20.900;2023-08-06T04:29:44;56.88;;;37.75;;
70675;SDS011;59069;52.242;20.900;2023-08-06T04:32:10;63.73;;;40.87;;
70675;SDS011;59069;52.242;20.900;2023-08-06T04:34:36;25.67;;;15.50;;
70675;SDS011;59069;52.242;20.900;2023-08-06T04:37:02;24.07;;;14.90;;
70675;SDS011;59069;52.242;20.900;2023-08-06T04:39:28;24.55;;;14.13;;
70675;SDS011;59069;52.242;20.900;2023-08-06T04:41:55;25.08;;;15.10;;
70675;SDS011;59069;52.242;20.900;2023-08-06T04:44:21;23.05;;;14.82;;
70675;SDS011;59069;52.242;20.900;2023-08-06T04:46:46;25.73;;;14.63;;
70675;SDS011;59069;52.242;20.900;2023-08-06T04:49:11;26.23;;;14.80;;
70675;SDS011;59069;52.242;20.900;2023-08-06T04:51:37;26.10;;;14.67;;
70675;SDS011;59069;52.242;20.900;2023-08-06T04:54:02;22.90;;;13.93;;
70675;SDS011;59069;52.242;20.900;2023-08-06T04:56:28;24.63;;;15.07;;
70675;SDS011;59069;52.242;20.900;2023-08-06T04:58:53;23.17;;;14.10;;
70675;SDS011;59069;52.242;20.900;2023-08-06T05:01:18;22.60;;;14.43;;
70675;SDS011;59069;52.242;20.900;2023-08-06T05:03:44;22.83;;;14.47;;
70675;SDS011;59069;52.242;20.900;2023-08-06T05:06:09;24.17;;;14.32;;
70675;SDS011;59069;52.242;20.900;2023-08-06T05:08:35;20.80;;;13.93;;
70675;SDS011;59069;52.242;20.900;2023-08-06T05:11:01;22.65;;;14.52;;
70675;SDS011;59069;52.242;20.900;2023-08-06T05:13:26;22.67;;;14.07;;
70675;SDS011;59069;52.242;20.900;2023-08-06T05:15:53;20.90;;;13.93;;
70675;SDS011;59069;52.242;20.900;2023-08-06T05:18:18;21.15;;;13.35;;
70675;SDS011;59069;52.242;20.900;2023-08-06T05:20:44;18.93;;;12.83;;
70675;SDS011;59069;52.242;20.900;2023-08-06T05:23:09;20.53;;;13.37;;
70675;SDS011;59069;52.242;20.900;2023-08-06T05:25:35;20.20;;;12.57;;
70675;SDS011;59069;52.242;20.900;2023-08-06T05:28:00;19.10;;;12.65;;
70675;SDS011;59069;52.242;20.900;2023-08-06T05:30:26;24.42;;;13.02;;
70675;SDS011;59069;52.242;20.900;2023-08-06T05:32:52;19.53;;;12.53;;
70675;SDS011;59069;52.242;20.900;2023-08-06T05:35:18;21.83;;;13.23;;
70675;SDS011;59069;52.242;20.900;2023-08-06T05:37:43;21.40;;;12.90;;
70675;SDS011;59069;52.242;20.900;2023-08-06T05:40:09;20.60;;;12.33;;
70675;SDS011;59069;52.242;20.900;2023-08-06T05:42:34;19.03;;;12.13;;
70675;SDS011;59069;52.242;20.900;2023-08-06T05:44:59;18.17;;;11.70;;
70675;SDS011;59069;52.242;20.900;2023-08-06T05:47:25;16.07;;;11.37;;
70675;SDS011;59069;52.242;20.900;2023-08-06T05:49:50;20.47;;;11.27;;
70675;SDS011;59069;52.242;20.900;2023-08-06T05:52:15;15.53;;;11.13;;
70675;SDS011;59069;52.242;20.900;2023-08-06T05:54:41;18.07;;;11.00;;
70675;SDS011;59069;52.242;20.900;2023-08-06T05:57:06;16.27;;;10.98;;
70675;SDS011;59069;52.242;20.900;2023-08-06T05:59:32;16.67;;;10.90;;
70675;SDS011;59069;52.242;20.900;2023-08-06T06:01:57;16.93;;;11.10;;
70675;SDS011;59069;52.242;20.900;2023-08-06T06:04:22;18.73;;;10.83;;
70675;SDS011;59069;52.242;20.900;2023-08-06T06:06:48;17.00;;;11.40;;
70675;SDS011;59069;52.242;20.900;2023-08-06T06:09:13;14.83;;;10.07;;
70675;SDS011;59069;52.242;20.900;2023-08-06T06:11:39;13.27;;;10.20;;
70675;SDS011;59069;52.242;20.900;2023-08-06T06:14:04;15.57;;;9.83;;
70675;SDS011;59069;52.242;20.900;2023-08-06T06:16:29;14.00;;;9.40;;
70675;SDS011;59069;52.242;20.900;2023-08-06T06:18:55;13.50;;;9.50;;
70675;SDS011;59069;52.242;20.900;2023-08-06T06:21:22;13.83;;;9.83;;
70675;SDS011;59069;52.242;20.900;2023-08-06T06:23:47;16.05;;;10.38;;
70675;SDS011;59069;52.242;20.900;2023-08-06T06:26:13;15.10;;;9.47;;
70675;SDS011;59069;52.242;20.900;2023-08-06T06:28:38;14.20;;;9.40;;
70675;SDS011;59069;52.242;20.900;2023-08-06T06:31:03;15.50;;;10.00;;
70675;SDS011;59069;52.242;20.900;2023-08-06T06:33:29;14.07;;;9.70;;
70675;SDS011;59069;52.242;20.900;2023-08-06T06:35:54;15.27;;;10.07;;
70675;SDS011;59069;52.242;20.900;2023-08-06T06:38:20;15.10;;;9.20;;
70675;SDS011;59069;52.242;20.900;2023-08-06T06:40:54;15.93;;;9.30;;
70675;SDS011;59069;52.242;20.900;2023-08-06T06:43:20;14.70;;;9.32;;
70675;SDS011;59069;52.242;20.900;2023-08-06T06:45:46;12.75;;;9.18;;
70675;SDS011;59069;52.242;20.900;2023-08-06T06:48:11;14.63;;;9.07;;
70675;SDS011;59069;52.242;20.900;2023-08-06T06:50:37;15.97;;;8.97;;
70675;SDS011;59069;52.242;20.900;2023-08-06T06:53:04;12.75;;;8.02;;
70675;SDS011;59069;52.242;20.900;2023-08-06T06:55:29;13.33;;;8.33;;
70675;SDS011;59069;52.242;20.900;2023-08-06T06:57:55;12.70;;;8.90;;
70675;SDS011;59069;52.242;20.900;2023-08-06T07:00:20;14.63;;;8.97;;
70675;SDS011;59069;52.242;20.900;2023-08-06T07:02:45;14.33;;;9.33;;
70675;SDS011;59069;52.242;20.900;2023-08-06T07:05:11;16.37;;;10.67;;
70675;SDS011;59069;52.242;20.900;2023-08-06T07:07:36;12.27;;;8.83;;
70675;SDS011;59069;52.242;20.900;2023-08-06T07:10:02;17.63;;;8.38;;
70675;SDS011;59069;52.242;20.900;2023-08-06T07:12:28;13.40;;;9.17;;
70675;SDS011;59069;52.242;20.900;2023-08-06T07:14:53;13.70;;;8.90;;
70675;SDS011;59069;52.242;20.900;2023-08-06T07:17:18;12.60;;;9.00;;
70675;SDS011;59069;52.242;20.900;2023-08-06T07:19:44;14.20;;;9.90;;
70675;SDS011;59069;52.242;20.900;2023-08-06T07:22:09;14.73;;;8.57;;
70675;SDS011;59069;52.242;20.900;2023-08-06T07:24:34;16.53;;;9.30;;
70675;SDS011;59069;52.242;20.900;2023-08-06T07:27:00;13.80;;;8.60;;
70675;SDS011;59069;52.242;20.900;2023-08-06T07:29:26;16.63;;;9.05;;
70675;SDS011;59069;52.242;20.900;2023-08-06T07:31:51;13.87;;;9.30;;
70675;SDS011;59069;52.242;20.900;2023-08-06T07:34:16;12.95;;;8.55;;
70675;SDS011;59069;52.242;20.900;2023-08-06T07:36:45;14.80;;;8.73;;
70675;SDS011;59069;52.242;20.900;2023-08-06T07:39:11;16.52;;;8.75;;
70675;SDS011;59069;52.242;20.900;2023-08-06T07:41:36;14.83;;;8.40;;
70675;SDS011;59069;52.242;20.900;2023-08-06T07:44:02;14.97;;;8.00;;
70675;SDS011;59069;52.242;20.900;2023-08-06T07:46:27;14.93;;;8.87;;
70675;SDS011;59069;52.242;20.900;2023-08-06T07:48:52;13.53;;;8.97;;
70675;SDS011;59069;52.242;20.900;2023-08-06T07:51:18;15.77;;;8.10;;
70675;SDS011;59069;52.242;20.900;2023-08-06T07:53:44;13.87;;;8.63;;
70675;SDS011;59069;52.242;20.900;2023-08-06T07:56:10;15.95;;;9.60;;
70675;SDS011;59069;52.242;20.900;2023-08-06T07:58:35;14.93;;;8.70;;
70675;SDS011;59069;52.242;20.900;2023-08-06T08:01:01;13.17;;;8.60;;
70675;SDS011;59069;52.242;20.900;2023-08-06T08:03:26;12.70;;;8.73;;
70675;SDS011;59069;52.242;20.900;2023-08-06T08:05:54;11.45;;;8.40;;
70675;SDS011;59069;52.242;20.900;2023-08-06T08:08:22;12.17;;;9.00;;
70675;SDS011;59069;52.242;20.900;2023-08-06T08:10:47;12.75;;;9.00;;
70675;SDS011;59069;52.242;20.900;2023-08-06T08:13:13;12.53;;;8.00;;
70675;SDS011;59069;52.242;20.900;2023-08-06T08:15:38;11.03;;;7.70;;
70675;SDS011;59069;52.242;20.900;2023-08-06T08:18:04;13.10;;;8.53;;
70675;SDS011;59069;52.242;20.900;2023-08-06T08:20:29;13.57;;;8.63;;
70675;SDS011;59069;52.242;20.900;2023-08-06T08:22:56;12.30;;;8.23;;
70675;SDS011;59069;52.242;20.900;2023-08-06T08:25:23;12.68;;;8.55;;
70675;SDS011;59069;52.242;20.900;2023-08-06T08:27:48;15.50;;;9.00;;
70675;SDS011;59069;52.242;20.900;2023-08-06T08:30:13;14.57;;;7.97;;
70675;SDS011;59069;52.242;20.900;2023-08-06T08:32:39;13.30;;;8.35;;
70675;SDS011;59069;52.242;20.900;2023-08-06T08:35:04;14.10;;;8.70;;
70675;SDS011;59069;52.242;20.900;2023-08-06T08:37:30;13.03;;;7.87;;
70675;SDS011;59069;52.242;20.900;2023-08-06T08:39:55;11.10;;;7.93;;
70675;SDS011;59069;52.242;20.900;2023-08-06T08:42:20;14.10;;;8.80;;
70675;SDS011;59069;52.242;20.900;2023-08-06T08:44:46;13.13;;;7.88;;
70675;SDS011;59069;52.242;20.900;2023-08-06T08:47:11;11.73;;;8.20;;
70675;SDS011;59069;52.242;20.900;2023-08-06T08:49:38;13.63;;;8.43;;
70675;SDS011;59069;52.242;20.900;2023-08-06T08:52:04;12.25;;;8.52;;
70675;SDS011;59069;52.242;20.900;2023-08-06T08:54:35;12.70;;;8.50;;
70675;SDS011;59069;52.242;20.900;2023-08-06T08:57:02;12.47;;;8.27;;
70675;SDS011;59069;52.242;20.900;2023-08-06T08:59:29;14.88;;;9.40;;
70675;SDS011;59069;52.242;20.900;2023-08-06T09:01:55;20.03;;;12.97;;
70675;SDS011;59069;52.242;20.900;2023-08-06T09:04:21;14.68;;;9.50;;
70675;SDS011;59069;52.242;20.900;2023-08-06T09:06:50;15.02;;;8.52;;
70675;SDS011;59069;52.242;20.900;2023-08-06T09:09:17;11.13;;;7.82;;
70675;SDS011;59069;52.242;20.900;2023-08-06T09:11:50;11.20;;;7.85;;
70675;SDS011;59069;52.242;20.900;2023-08-06T09:14:16;13.37;;;7.80;;
70675;SDS011;59069;52.242;20.900;2023-08-06T09:16:43;13.35;;;8.15;;
70675;SDS011;59069;52.242;20.900;2023-08-06T09:21:41;17.35;;;8.77;;
70675;SDS011;59069;52.242;20.900;2023-08-06T09:24:10;12.50;;;8.05;;
70675;SDS011;59069;52.242;20.900;2023-08-06T09:26:37;15.17;;;7.97;;
70675;SDS011;59069;52.242;20.900;2023-08-06T09:29:06;15.35;;;8.23;;
70675;SDS011;59069;52.242;20.900;2023-08-06T09:31:42;23.65;;;17.80;;
70675;SDS011;59069;52.242;20.900;2023-08-06T09:34:18;15.32;;;8.18;;
70675;SDS011;59069;52.242;20.900;2023-08-06T09:36:48;13.07;;;8.27;;
70675;SDS011;59069;52.242;20.900;2023-08-06T09:39:19;13.93;;;8.93;;
70675;SDS011;59069;52.242;20.900;2023-08-06T09:41:55;12.00;;;7.72;;
70675;SDS011;59069;52.242;20.900;2023-08-06T09:44:22;10.27;;;7.32;;
70675;SDS011;59069;52.242;20.900;2023-08-06T09:46:49;11.73;;;7.18;;
70675;SDS011;59069;52.242;20.900;2023-08-06T09:49:25;12.73;;;6.95;;
70675;SDS011;59069;52.242;20.900;2023-08-06T09:52:08;9.87;;;7.10;;
70675;SDS011;59069;52.242;20.900;2023-08-06T09:54:35;11.02;;;6.93;;
70675;SDS011;59069;52.242;20.900;2023-08-06T09:57:02;10.98;;;6.95;;
70675;SDS011;59069;52.242;20.900;2023-08-06T09:59:28;10.02;;;6.80;;
70675;SDS011;59069;52.242;20.900;2023-08-06T10:01:54;11.88;;;7.43;;
70675;SDS011;59069;52.242;20.900;2023-08-06T10:04:20;12.63;;;6.70;;
70675;SDS011;59069;52.242;20.900;2023-08-06T10:06:46;10.30;;;6.43;;
70675;SDS011;59069;52.242;20.900;2023-08-06T10:09:13;14.05;;;7.38;;
70675;SDS011;59069;52.242;20.900;2023-08-06T10:11:38;9.60;;;6.73;;
70675;SDS011;59069;52.242;20.900;2023-08-06T10:14:11;10.75;;;6.82;;
70675;SDS011;59069;52.242;20.900;2023-08-06T10:16:39;11.80;;;7.07;;
70675;SDS011;59069;52.242;20.900;2023-08-06T10:19:05;10.30;;;6.30;;
70675;SDS011;59069;52.242;20.900;2023-08-06T10:21:34;13.05;;;6.93;;
70675;SDS011;59069;52.242;20.900;2023-08-06T10:23:59;10.87;;;6.43;;
70675;SDS011;59069;52.242;20.900;2023-08-06T10:26:29;10.88;;;6.95;;
70675;SDS011;59069;52.242;20.900;2023-08-06T10:28:55;10.35;;;6.38;;
70675;SDS011;59069;52.242;20.900;2023-08-06T10:32:07;9.57;;;6.22;;
70675;SDS011;59069;52.242;20.900;2023-08-06T10:34:20;9.88;;;7.05;;
70675;SDS011;59069;52.242;20.900;2023-08-06T10:36:46;16.53;;;6.93;;
70675;SDS011;59069;52.242;20.900;2023-08-06T10:39:14;12.17;;;6.93;;
70675;SDS011;59069;52.242;20.900;2023-08-06T10:41:41;9.13;;;6.22;;
70675;SDS011;59069;52.242;20.900;2023-08-06T10:44:08;13.82;;;6.25;;
70675;SDS011;59069;52.242;20.900;2023-08-06T10:46:35;9.63;;;6.55;;
70675;SDS011;59069;52.242;20.900;2023-08-06T10:49:01;10.10;;;6.67;;
70675;SDS011;59069;52.242;20.900;2023-08-06T10:51:27;10.20;;;6.45;;
70675;SDS011;59069;52.242;20.900;2023-08-06T10:53:52;11.23;;;6.70;;
70675;SDS011;59069;52.242;20.900;2023-08-06T10:56:22;10.00;;;6.57;;
70675;SDS011;59069;52.242;20.900;2023-08-06T10:58:49;11.05;;;6.60;;
70675;SDS011;59069;52.242;20.900;2023-08-06T11:01:16;9.13;;;6.32;;
70675;SDS011;59069;52.242;20.900;2023-08-06T11:03:42;11.15;;;6.50;;
70675;SDS011;59069;52.242;20.900;2023-08-06T11:06:09;10.40;;;6.37;;
70675;SDS011;59069;52.242;20.900;2023-08-06T11:08:36;9.43;;;6.03;;
70675;SDS011;59069;52.242;20.900;2023-08-06T11:11:13;10.90;;;6.03;;
70675;SDS011;59069;52.242;20.900;2023-08-06T11:13:42;10.45;;;6.38;;
70675;SDS011;59069;52.242;20.900;2023-08-06T11:16:11;9.55;;;6.40;;
70675;SDS011;59069;52.242;20.900;2023-08-06T11:18:36;10.70;;;6.57;;
70675;SDS011;59069;52.242;20.900;2023-08-06T11:21:02;10.77;;;6.53;;
70675;SDS011;59069;52.242;20.900;2023-08-06T11:23:27;10.10;;;5.70;;
70675;SDS011;59069;52.242;20.900;2023-08-06T11:25:54;9.10;;;5.97;;
70675;SDS011;59069;52.242;20.900;2023-08-06T11:28:20;10.43;;;5.47;;
70675;SDS011;59069;52.242;20.900;2023-08-06T11:30:49;9.15;;;6.13;;
70675;SDS011;59069;52.242;20.900;2023-08-06T11:33:19;9.30;;;5.45;;
70675;SDS011;59069;52.242;20.900;2023-08-06T11:35:54;9.27;;;5.45;;
70675;SDS011;59069;52.242;20.900;2023-08-06T11:38:21;9.80;;;5.73;;
70675;SDS011;59069;52.242;20.900;2023-08-06T11:40:47;9.95;;;5.90;;
70675;SDS011;59069;52.242;20.900;2023-08-06T11:43:13;10.73;;;6.40;;
70675;SDS011;59069;52.242;20.900;2023-08-06T11:45:39;7.90;;;5.93;;
70675;SDS011;59069;52.242;20.900;2023-08-06T11:48:05;8.93;;;5.50;;
70675;SDS011;59069;52.242;20.900;2023-08-06T11:50:35;7.82;;;5.32;;
70675;SDS011;59069;52.242;20.900;2023-08-06T11:53:02;8.48;;;5.32;;
70675;SDS011;59069;52.242;20.900;2023-08-06T11:55:28;8.07;;;5.70;;
70675;SDS011;59069;52.242;20.900;2023-08-06T11:57:54;8.40;;;5.82;;
70675;SDS011;59069;52.242;20.900;2023-08-06T12:00:20;11.63;;;5.18;;
70675;SDS011;59069;52.242;20.900;2023-08-06T12:02:49;11.97;;;6.13;;
70675;SDS011;59069;52.242;20.900;2023-08-06T12:05:19;8.88;;;5.80;;
70675;SDS011;59069;52.242;20.900;2023-08-06T12:07:52;10.13;;;5.82;;
70675;SDS011;59069;52.242;20.900;2023-08-06T12:10:18;9.13;;;5.53;;
70675;SDS011;59069;52.242;20.900;2023-08-06T12:12:45;10.38;;;5.50;;
70675;SDS011;59069;52.242;20.900;2023-08-06T12:15:11;8.33;;;5.93;;
70675;SDS011;59069;52.242;20.900;2023-08-06T12:17:36;9.07;;;5.30;;
70675;SDS011;59069;52.242;20.900;2023-08-06T12:20:02;9.60;;;4.80;;
70675;SDS011;59069;52.242;20.900;2023-08-06T12:22:29;12.13;;;5.27;;
70675;SDS011;59069;52.242;20.900;2023-08-06T12:24:59;8.40;;;5.55;;
70675;SDS011;59069;52.242;20.900;2023-08-06T12:27:25;8.98;;;5.60;;
70675;SDS011;59069;52.242;20.900;2023-08-06T12:29:50;8.00;;;5.83;;
70675;SDS011;59069;52.242;20.900;2023-08-06T12:32:16;11.10;;;5.83;;
70675;SDS011;59069;52.242;20.900;2023-08-06T12:34:42;8.95;;;6.05;;
70675;SDS011;59069;52.242;20.900;2023-08-06T12:37:08;10.90;;;6.00;;
70675;SDS011;59069;52.242;20.900;2023-08-06T12:39:34;8.77;;;5.93;;
70675;SDS011;59069;52.242;20.900;2023-08-06T12:42:04;9.60;;;6.40;;
70675;SDS011;59069;52.242;20.900;2023-08-06T12:44:31;8.70;;;5.80;;
70675;SDS011;59069;52.242;20.900;2023-08-06T12:46:57;9.13;;;6.23;;
70675;SDS011;59069;52.242;20.900;2023-08-06T12:49:23;9.55;;;6.25;;
70675;SDS011;59069;52.242;20.900;2023-08-06T12:51:49;8.95;;;5.95;;
70675;SDS011;59069;52.242;20.900;2023-08-06T12:54:18;11.23;;;5.80;;
70675;SDS011;59069;52.242;20.900;2023-08-06T12:56:47;9.83;;;6.40;;
70675;SDS011;59069;52.242;20.900;2023-08-06T12:59:14;11.00;;;6.07;;
70675;SDS011;59069;52.242;20.900;2023-08-06T13:01:40;9.25;;;5.95;;
70675;SDS011;59069;52.242;20.900;2023-08-06T13:04:06;8.80;;;5.97;;
70675;SDS011;59069;52.242;20.900;2023-08-06T13:06:32;8.30;;;5.87;;
70675;SDS011;59069;52.242;20.900;2023-08-06T13:09:05;11.80;;;6.97;;
70675;SDS011;59069;52.242;20.900;2023-08-06T13:11:37;9.30;;;6.00;;
70675;SDS011;59069;52.242;20.900;2023-08-06T13:14:12;9.68;;;6.82;;
70675;SDS011;59069;52.242;20.900;2023-08-06T13:16:40;15.33;;;10.90;;
70675;SDS011;59069;52.242;20.900;2023-08-06T13:19:06;8.02;;;5.75;;
70675;SDS011;59069;52.242;20.900;2023-08-06T13:22:17;8.45;;;5.32;;
70675;SDS011;59069;52.242;20.900;2023-08-06T13:24:25;11.88;;;10.18;;
70675;SDS011;59069;52.242;20.900;2023-08-06T13:26:52;12.95;;;9.20;;
70675;SDS011;59069;52.242;20.900;2023-08-06T13:29:17;8.80;;;5.80;;
70675;SDS011;59069;52.242;20.900;2023-08-06T13:31:43;13.40;;;7.63;;
70675;SDS011;59069;52.242;20.900;2023-08-06T13:34:08;11.23;;;6.23;;
70675;SDS011;59069;52.242;20.900;2023-08-06T13:36:33;8.70;;;5.40;;
70675;SDS011;59069;52.242;20.900;2023-08-06T13:38:59;7.60;;;4.90;;
70675;SDS011;59069;52.242;20.900;2023-08-06T13:41:25;7.53;;;4.82;;
70675;SDS011;59069;52.242;20.900;2023-08-06T13:43:50;9.77;;;4.97;;
70675;SDS011;59069;52.242;20.900;2023-08-06T13:46:17;8.95;;;5.47;;
70675;SDS011;59069;52.242;20.900;2023-08-06T13:48:45;8.20;;;4.67;;
70675;SDS011;59069;52.242;20.900;2023-08-06T13:51:11;8.02;;;5.18;;
70675;SDS011;59069;52.242;20.900;2023-08-06T13:53:38;10.35;;;5.45;;
70675;SDS011;59069;52.242;20.900;2023-08-06T13:56:04;8.80;;;5.28;;
70675;SDS011;59069;52.242;20.900;2023-08-06T13:58:31;8.77;;;5.03;;
70675;SDS011;59069;52.242;20.900;2023-08-06T14:00:56;8.37;;;4.63;;
70675;SDS011;59069;52.242;20.900;2023-08-06T14:03:22;9.73;;;5.45;;
70675;SDS011;59069;52.242;20.900;2023-08-06T14:05:48;8.03;;;5.30;;
70675;SDS011;59069;52.242;20.900;2023-08-06T14:08:13;8.33;;;5.30;;
70675;SDS011;59069;52.242;20.900;2023-08-06T14:10:40;9.02;;;5.20;;
70675;SDS011;59069;52.242;20.900;2023-08-06T14:13:05;8.13;;;5.37;;
70675;SDS011;59069;52.242;20.900;2023-08-06T14:15:30;8.57;;;5.03;;
70675;SDS011;59069;52.242;20.900;2023-08-06T14:17:56;8.13;;;4.67;;